Broaddus, Texas
Current Conditions -  °F | °C
As of 9:39 PM on Saturday 22 Nov 2014 (Local Time) from KLFK Reporting Station
Moderate Rain Moderate Rain  
Wind Chill: 67°   Ceiling: 1400
Heat Index: 67°   Visibility: 2mi
Dew Point: 63°   Wind: 6mph
Humidity: 87%   Direction: 240°WSW
Pressure: 29.8"   Gusts: NA
Location:  31.31°N, 94.27°W
Report Text: KLFK 230339Z AUTO 24005KT 2SM RA BR FEW007 BKN014 OVC019 19/17 A2980 RMK AO2 PK WND 11028/0307 WSHFT 0305 VIS 3/4V5 P0026 T01940172
Loading
Personal Weather Stations






























Interactive Weather Map New forecast layout! Learn more

10-Day Weather Forecast

Advertisements
Track Severe Weather on mobile